Time;durP1;ratioP1;P1;durP2;ratioP2;P2;SDS_P1;SDS_P2;PMS_P1;PMS_P2;Temp;Humidity;BMP_temperature;BMP_pressure;BME280_temperature;BME280_humidity;BME280_pressure;Samples;Min_cycle;Max_cycle;Signal;HPM_P1;HPM_P2
2022/08/16 00:00:42;;;;;;;2.90;2.20;;;21.60;62.00;;;;;;4942802;28;20034;-77
2022/08/16 00:03:09;;;;;;;3.78;2.47;;;21.60;62.30;;;;;;4933845;28;21092;-77
2022/08/16 00:05:36;;;;;;;3.25;2.60;;;21.50;62.00;;;;;;4957787;28;20018;-77
2022/08/16 00:08:02;;;;;;;3.30;2.30;;;21.50;62.00;;;;;;4947738;28;20125;-77
2022/08/16 00:10:32;;;;;;;4.07;2.50;;;21.50;62.20;;;;;;4941813;28;20053;-77
2022/08/16 00:12:59;;;;;;;3.50;2.80;;;21.50;62.40;;;;;;4964109;28;20019;-77
2022/08/16 00:15:34;;;;;;;3.78;2.40;;;21.40;62.40;;;;;;4927040;28;20024;-77
2022/08/16 00:18:00;;;;;;;3.40;2.60;;;21.40;63.50;;;;;;4975491;28;20069;-77
2022/08/16 00:20:26;;;;;;;3.95;2.92;;;21.40;62.70;;;;;;4978450;28;20105;-77
2022/08/16 00:22:51;;;;;;;3.10;2.53;;;21.40;62.90;;;;;;4964478;28;20395;-77
2022/08/16 00:25:20;;;;;;;3.65;2.45;;;21.40;63.00;;;;;;4975647;28;20335;-77
2022/08/16 00:27:46;;;;;;;3.40;2.60;;;21.40;63.30;;;;;;4968883;28;20487;-77
2022/08/16 00:30:14;;;;;;;3.13;2.50;;;21.30;63.40;;;;;;4952191;28;20042;-77
2022/08/16 00:32:43;;;;;;;4.05;2.90;;;21.30;63.70;;;;;;4949856;28;20038;-77
2022/08/16 00:35:13;;;;;;;3.63;2.70;;;21.30;64.00;;;;;;4966122;28;20026;-77
2022/08/16 00:37:39;;;;;;;4.18;2.83;;;21.30;64.40;;;;;;4977081;28;20034;-77
2022/08/16 00:40:07;;;;;;;4.60;2.80;;;21.30;64.20;;;;;;4947094;28;20268;-77
2022/08/16 00:42:33;;;;;;;3.95;2.72;;;21.20;64.30;;;;;;4974086;28;20046;-77
2022/08/16 00:45:26;;;;;;;3.50;2.55;;;21.20;64.40;;;;;;4954518;28;20542;-77
2022/08/16 00:47:53;;;;;;;3.65;2.70;;;21.20;65.50;;;;;;4957909;28;20026;-77
2022/08/16 00:50:23;;;;;;;3.85;2.88;;;21.20;64.20;;;;;;4952885;28;20562;-77
2022/08/16 00:52:49;;;;;;;4.37;2.67;;;21.10;64.50;;;;;;4979680;28;20027;-77
2022/08/16 00:55:15;;;;;;;3.47;2.40;;;21.10;64.60;;;;;;4927059;28;20443;-77
2022/08/16 00:57:41;;;;;;;3.72;2.50;;;21.10;64.40;;;;;;4964276;28;20974;-77
2022/08/16 01:00:07;;;;;;;4.73;2.60;;;21.10;64.40;;;;;;4954019;28;20623;-77
2022/08/16 01:02:33;;;;;;;4.05;2.70;;;21.10;64.50;;;;;;4939733;28;20302;-80
2022/08/16 01:05:00;;;;;;;3.72;2.60;;;21.00;64.40;;;;;;4979796;28;20030;-80
2022/08/16 01:07:27;;;;;;;3.90;2.80;;;21.10;64.50;;;;;;4954203;28;20523;-80
2022/08/16 01:09:53;;;;;;;4.63;2.80;;;21.10;64.60;;;;;;4956900;28;20507;-80
2022/08/16 01:12:20;;;;;;;3.30;2.65;;;21.10;64.50;;;;;;4962913;28;20065;-80
2022/08/16 01:14:55;;;;;;;3.72;2.80;;;21.00;64.50;;;;;;4957092;28;20026;-80
2022/08/16 01:17:22;;;;;;;3.78;2.83;;;21.00;65.70;;;;;;4924026;28;20718;-80
2022/08/16 01:19:52;;;;;;;3.20;2.60;;;21.00;64.90;;;;;;4975331;28;20026;-80
2022/08/16 01:22:27;;;;;;;4.07;2.80;;;21.00;65.20;;;;;;4976009;28;20034;-80
2022/08/16 01:24:57;;;;;;;4.93;2.50;;;21.00;65.70;;;;;;4941037;28;20027;-80
2022/08/16 01:27:29;;;;;;;3.47;2.50;;;21.00;64.90;;;;;;4927139;28;20125;-80
2022/08/16 01:30:05;;;;;;;3.60;2.80;;;20.90;65.00;;;;;;4964090;28;20037;-80
2022/08/16 01:32:37;;;;;;;4.15;2.60;;;20.90;64.90;;;;;;4945126;28;20255;-79
2022/08/16 01:35:06;;;;;;;3.73;2.40;;;20.80;64.60;;;;;;4971453;28;20115;-80
2022/08/16 01:37:49;;;;;;;3.28;2.33;;;20.80;64.80;;;;;;4962488;28;20061;-80
2022/08/16 01:40:18;;;;;;;3.72;2.70;;;20.80;65.30;;;;;;4939356;28;20093;-80
2022/08/16 01:42:47;;;;;;;4.10;2.67;;;20.70;64.90;;;;;;4979102;28;20438;-80
2022/08/16 01:45:12;;;;;;;3.25;2.70;;;20.70;65.00;;;;;;4977613;28;20026;-79
2022/08/16 01:47:40;;;;;;;3.73;2.90;;;20.70;64.90;;;;;;4962798;28;20128;-80
2022/08/16 01:50:07;;;;;;;3.78;2.70;;;20.70;65.10;;;;;;4922085;28;20039;-81
2022/08/16 01:52:34;;;;;;;3.95;2.53;;;20.60;65.20;;;;;;4979780;28;20119;-80
2022/08/16 01:55:00;;;;;;;3.60;2.80;;;20.60;65.20;;;;;;4953918;28;20073;-80
2022/08/16 01:57:27;;;;;;;3.20;2.60;;;20.60;65.40;;;;;;4957972;28;20031;-80
2022/08/16 01:59:54;;;;;;;3.95;2.97;;;20.60;65.50;;;;;;4962038;28;20117;-80
2022/08/16 02:02:23;;;;;;;3.55;2.78;;;20.50;65.30;;;;;;4953121;28;20058;-80
2022/08/16 02:04:49;;;;;;;3.25;2.40;;;20.50;65.30;;;;;;4933938;28;20086;-80
2022/08/16 02:07:17;;;;;;;3.50;2.60;;;20.50;65.30;;;;;;4934692;28;20019;-80
2022/08/16 02:09:44;;;;;;;3.47;2.50;;;20.50;65.40;;;;;;4963316;28;20022;-80
2022/08/16 02:12:11;;;;;;;3.30;2.58;;;20.50;65.40;;;;;;4951424;28;20033;-79
2022/08/16 02:14:37;;;;;;;3.45;2.65;;;20.30;65.40;;;;;;4971020;28;20499;-80
2022/08/16 02:17:06;;;;;;;3.45;2.42;;;20.40;65.60;;;;;;4980817;28;20022;-80
2022/08/16 02:19:35;;;;;;;4.20;2.72;;;20.30;65.60;;;;;;4965552;28;20050;-80
2022/08/16 02:22:02;;;;;;;3.27;2.70;;;20.30;65.80;;;;;;4943910;28;20026;-80
2022/08/16 02:24:28;;;;;;;4.38;2.63;;;20.30;65.80;;;;;;4953513;28;20027;-80
2022/08/16 02:26:55;;;;;;;4.45;2.80;;;20.20;65.80;;;;;;4942494;28;20351;-80
2022/08/16 02:29:21;;;;;;;3.80;3.00;;;20.30;66.10;;;;;;4975798;28;20092;-80
2022/08/16 02:31:49;;;;;;;4.03;2.90;;;20.20;66.00;;;;;;4969488;28;20634;-80
2022/08/16 02:34:17;;;;;;;3.93;2.93;;;20.20;66.10;;;;;;4962550;28;20639;-80
2022/08/16 02:36:43;;;;;;;3.97;2.80;;;20.20;66.10;;;;;;4931685;28;20257;-79
2022/08/16 02:39:11;;;;;;;4.07;2.90;;;20.10;66.10;;;;;;4973820;28;20112;-80
2022/08/16 02:41:38;;;;;;;4.00;2.85;;;20.10;66.30;;;;;;4927360;28;20376;-80
2022/08/16 02:44:05;;;;;;;4.80;3.35;;;20.10;66.30;;;;;;4977196;28;20483;-80
2022/08/16 02:46:32;;;;;;;5.10;3.37;;;20.10;66.40;;;;;;4951539;28;20026;-80
2022/08/16 02:48:59;;;;;;;4.35;3.35;;;20.10;66.80;;;;;;4962544;28;20476;-80
2022/08/16 02:51:26;;;;;;;4.72;3.50;;;20.10;66.90;;;;;;4960971;28;20490;-80
2022/08/16 02:53:53;;;;;;;5.18;3.38;;;20.00;67.20;;;;;;4962093;28;20301;-80
2022/08/16 02:56:19;;;;;;;5.10;3.72;;;20.10;67.10;;;;;;4945733;28;20424;-80
2022/08/16 02:58:48;;;;;;;4.30;3.40;;;20.10;67.30;;;;;;4929697;28;20046;-80
2022/08/16 03:01:16;;;;;;;4.50;3.78;;;20.10;68.40;;;;;;4968294;28;20041;-80
2022/08/16 03:03:42;;;;;;;5.85;3.65;;;20.10;67.70;;;;;;4974869;28;20085;-80
2022/08/16 03:06:08;;;;;;;5.05;3.92;;;20.10;67.80;;;;;;4947064;28;20027;-80
2022/08/16 03:08:34;;;;;;;4.80;3.90;;;20.10;68.10;;;;;;4957143;28;20042;-80
2022/08/16 03:11:01;;;;;;;4.65;3.78;;;20.10;68.20;;;;;;4976614;28;20018;-80
2022/08/16 03:13:27;;;;;;;5.25;3.97;;;20.20;68.30;;;;;;4960267;28;20113;-80
2022/08/16 03:15:53;;;;;;;4.47;3.55;;;20.20;68.40;;;;;;4975914;28;20109;-80
2022/08/16 03:18:18;;;;;;;6.13;3.60;;;20.20;68.40;;;;;;4979598;28;20121;-80
2022/08/16 03:20:44;;;;;;;5.18;3.70;;;20.20;68.50;;;;;;4968971;28;20751;-80
2022/08/16 03:23:10;;;;;;;4.90;3.73;;;20.20;68.40;;;;;;4930102;28;20038;-80
2022/08/16 03:25:36;;;;;;;5.07;3.90;;;20.20;68.20;;;;;;4975389;28;20026;-80
2022/08/16 03:28:04;;;;;;;5.25;3.80;;;20.20;68.10;;;;;;4961969;28;20042;-80
2022/08/16 03:30:32;;;;;;;4.95;4.00;;;20.20;68.20;;;;;;4927031;28;20034;-80
2022/08/16 03:32:58;;;;;;;4.50;3.50;;;20.20;68.20;;;;;;4973960;28;21317;-80
2022/08/16 03:35:27;;;;;;;5.53;3.72;;;20.20;68.00;;;;;;4957837;28;20040;-80
2022/08/16 03:37:56;;;;;;;5.07;3.75;;;20.20;68.10;;;;;;4951980;28;22274;-80
2022/08/16 03:40:22;;;;;;;5.40;3.78;;;20.20;68.00;;;;;;4976947;28;20089;-80
2022/08/16 03:42:48;;;;;;;4.88;3.50;;;20.20;67.90;;;;;;4973174;28;20503;-80
2022/08/16 03:45:14;;;;;;;6.77;3.90;;;20.10;67.70;;;;;;4965768;28;20148;-79
2022/08/16 03:47:41;;;;;;;5.43;3.70;;;20.10;67.80;;;;;;4944078;28;20050;-80
2022/08/16 03:50:08;;;;;;;5.55;3.65;;;20.10;67.90;;;;;;4979817;28;20490;-80
2022/08/16 03:52:34;;;;;;;4.63;3.75;;;20.00;67.90;;;;;;4949115;28;20161;-79
2022/08/16 03:55:04;;;;;;;5.23;3.77;;;20.00;68.10;;;;;;4957157;28;20573;-80
2022/08/16 03:57:30;;;;;;;4.40;3.40;;;20.00;68.70;;;;;;4966262;28;20037;-80
2022/08/16 03:59:56;;;;;;;6.05;3.78;;;19.90;68.30;;;;;;4966018;28;21772;-80
2022/08/16 04:02:22;;;;;;;4.47;3.33;;;19.90;68.20;;;;;;4976697;28;20018;-80
2022/08/16 04:04:49;;;;;;;5.43;3.80;;;19.80;68.30;;;;;;4980856;28;20196;-79
2022/08/16 04:07:15;;;;;;;4.72;3.45;;;19.80;68.30;;;;;;4980031;28;20046;-80
2022/08/16 04:09:41;;;;;;;4.57;3.53;;;19.80;68.30;;;;;;4953866;28;20081;-80
2022/08/16 04:12:10;;;;;;;5.30;3.70;;;19.70;68.40;;;;;;4963346;28;20120;-79
2022/08/16 04:14:36;;;;;;;5.55;3.63;;;19.70;68.60;;;;;;4968558;28;20057;-80
2022/08/16 04:17:02;;;;;;;5.73;3.73;;;19.70;68.50;;;;;;4950285;28;20120;-80
2022/08/16 04:19:28;;;;;;;4.93;3.70;;;19.70;68.60;;;;;;4971790;28;20033;-80
2022/08/16 04:21:55;;;;;;;4.38;3.33;;;19.70;68.60;;;;;;4963004;28;20037;-80
2022/08/16 04:24:21;;;;;;;4.70;3.90;;;19.60;68.80;;;;;;4960289;28;20042;-80
2022/08/16 04:26:47;;;;;;;4.97;3.57;;;19.60;68.60;;;;;;4968639;28;20669;-80
2022/08/16 04:29:14;;;;;;;5.07;3.50;;;19.60;68.60;;;;;;4966973;28;20018;-80
2022/08/16 04:31:40;;;;;;;4.90;3.60;;;19.60;68.70;;;;;;4956504;28;20439;-80
2022/08/16 04:34:06;;;;;;;4.50;3.60;;;19.50;68.60;;;;;;4959647;28;20030;-80
2022/08/16 04:36:31;;;;;;;4.88;3.70;;;19.50;68.70;;;;;;4945397;28;20372;-80
2022/08/16 04:38:57;;;;;;;5.23;3.73;;;19.50;68.80;;;;;;4955172;28;20129;-80
2022/08/16 04:41:23;;;;;;;4.72;3.40;;;19.50;68.90;;;;;;4944123;28;20054;-79
2022/08/16 04:43:50;;;;;;;4.47;3.53;;;19.50;68.90;;;;;;4980229;28;20624;-80
2022/08/16 04:46:16;;;;;;;4.80;3.63;;;19.40;68.80;;;;;;4956947;28;20565;-79
2022/08/16 04:48:42;;;;;;;8.60;3.97;;;19.50;69.00;;;;;;4958081;28;20401;-80
2022/08/16 04:51:09;;;;;;;4.33;3.37;;;19.40;69.10;;;;;;4966803;28;20682;-79
2022/08/16 04:53:35;;;;;;;5.65;3.63;;;19.40;69.20;;;;;;4950790;28;21533;-79
2022/08/16 04:56:02;;;;;;;5.40;3.80;;;19.40;69.30;;;;;;4923294;28;20498;-79
2022/08/16 04:58:30;;;;;;;5.70;3.58;;;19.40;69.40;;;;;;4955458;28;20503;-80
2022/08/16 05:00:56;;;;;;;5.18;3.70;;;19.40;69.50;;;;;;4978333;28;20034;-79
2022/08/16 05:03:22;;;;;;;5.10;3.53;;;19.40;69.50;;;;;;4942125;28;20041;-80
2022/08/16 05:05:48;;;;;;;6.72;3.55;;;19.40;69.50;;;;;;4956926;28;20121;-80
2022/08/16 05:08:14;;;;;;;4.50;3.60;;;19.30;69.40;;;;;;4946049;28;20033;-79
2022/08/16 05:10:40;;;;;;;5.85;3.70;;;19.40;69.50;;;;;;4931234;28;20031;-79
2022/08/16 05:13:06;;;;;;;4.10;3.50;;;19.30;69.50;;;;;;4933203;28;20058;-80
2022/08/16 05:15:34;;;;;;;4.88;3.50;;;19.40;69.80;;;;;;4979166;28;20026;-80
2022/08/16 05:18:00;;;;;;;5.53;3.47;;;19.40;69.80;;;;;;4956040;28;23828;-81
2022/08/16 05:20:26;;;;;;;4.67;3.27;;;19.40;69.80;;;;;;4959225;28;20041;-82
2022/08/16 05:22:52;;;;;;;5.68;3.50;;;19.40;70.00;;;;;;4957934;28;20026;-81
2022/08/16 05:25:19;;;;;;;4.57;3.30;;;19.40;70.10;;;;;;4948966;28;20058;-82
2022/08/16 05:27:46;;;;;;;5.25;3.67;;;19.40;70.30;;;;;;4940673;28;20103;-81
2022/08/16 05:30:13;;;;;;;5.78;3.60;;;19.50;70.70;;;;;;4952266;28;20081;-81
2022/08/16 05:32:40;;;;;;;4.20;3.30;;;19.50;70.90;;;;;;4917670;28;20027;-82
2022/08/16 05:35:08;;;;;;;4.90;3.72;;;19.60;70.90;;;;;;4944327;28;20026;-81
2022/08/16 05:37:35;;;;;;;4.30;3.50;;;19.60;71.20;;;;;;4936821;28;21551;-82
2022/08/16 05:40:02;;;;;;;5.28;3.53;;;19.70;71.30;;;;;;4964587;28;20089;-82
2022/08/16 05:42:28;;;;;;;4.75;3.50;;;19.80;71.50;;;;;;4950015;28;20117;-82
2022/08/16 05:44:54;;;;;;;5.23;3.30;;;19.90;71.50;;;;;;4939802;28;20030;-82
2022/08/16 05:47:19;;;;;;;4.38;3.30;;;19.90;71.50;;;;;;4943330;28;20585;-82
2022/08/16 05:49:45;;;;;;;4.37;3.13;;;20.00;71.70;;;;;;4946330;28;20018;-82
2022/08/16 05:52:11;;;;;;;4.70;3.60;;;20.10;71.70;;;;;;4948605;28;20046;-82
2022/08/16 05:54:38;;;;;;;4.85;3.45;;;20.20;71.70;;;;;;4960180;28;20379;-82
2022/08/16 05:57:04;;;;;;;5.25;3.78;;;20.30;71.70;;;;;;4936324;28;20479;-82
2022/08/16 05:59:30;;;;;;;5.38;3.50;;;20.30;71.70;;;;;;4957973;28;23120;-82
2022/08/16 06:01:56;;;;;;;4.85;3.85;;;20.40;71.60;;;;;;4967735;28;20255;-82
2022/08/16 06:04:22;;;;;;;5.20;3.23;;;20.50;71.50;;;;;;4937250;28;20018;-82
2022/08/16 06:06:48;;;;;;;5.05;3.75;;;20.60;71.60;;;;;;4951580;28;20056;-80
2022/08/16 06:09:15;;;;;;;5.82;3.70;;;20.60;71.40;;;;;;4973564;28;20037;-80
2022/08/16 06:11:41;;;;;;;5.15;3.65;;;20.70;71.60;;;;;;4951346;28;20070;-80
2022/08/16 06:14:07;;;;;;;4.80;3.70;;;20.70;71.60;;;;;;4957283;28;20027;-80
2022/08/16 06:16:33;;;;;;;4.90;3.40;;;20.80;71.60;;;;;;4949015;28;20093;-81
2022/08/16 06:18:59;;;;;;;5.20;3.80;;;20.90;71.70;;;;;;4961584;28;20027;-80
2022/08/16 06:21:25;;;;;;;5.20;3.50;;;21.00;71.70;;;;;;4952220;28;20046;-81
2022/08/16 06:23:52;;;;;;;5.73;3.90;;;21.00;71.80;;;;;;4973628;28;20018;-80
2022/08/16 06:26:18;;;;;;;5.53;3.88;;;21.10;71.70;;;;;;4969642;28;20035;-80
2022/08/16 06:28:44;;;;;;;5.28;3.92;;;21.10;71.80;;;;;;4944977;28;20219;-80
2022/08/16 06:31:11;;;;;;;5.50;3.67;;;21.20;71.80;;;;;;4969749;28;20034;-80
2022/08/16 06:33:37;;;;;;;4.95;3.88;;;21.30;71.90;;;;;;4943582;28;20439;-80
2022/08/16 06:36:03;;;;;;;5.30;3.97;;;21.40;71.80;;;;;;4917322;28;20597;-80
2022/08/16 06:38:29;;;;;;;5.20;4.25;;;21.50;71.70;;;;;;4979255;28;20097;-80
2022/08/16 06:40:55;;;;;;;5.25;4.15;;;21.60;71.80;;;;;;4982925;28;20031;-80
2022/08/16 06:43:21;;;;;;;5.60;4.13;;;21.70;71.80;;;;;;4955057;28;20407;-79
2022/08/16 06:45:48;;;;;;;5.63;3.93;;;21.80;71.90;;;;;;4948346;28;20349;-80
2022/08/16 06:48:13;;;;;;;5.82;3.90;;;21.90;71.80;;;;;;4979501;28;20025;-81
2022/08/16 06:50:39;;;;;;;5.00;4.00;;;21.90;71.70;;;;;;4959121;28;20494;-80
2022/08/16 06:53:05;;;;;;;5.30;3.87;;;22.10;71.80;;;;;;4948572;28;20396;-80
2022/08/16 06:55:33;;;;;;;4.75;3.45;;;22.20;71.80;;;;;;4972594;28;20050;-80
2022/08/16 06:57:59;;;;;;;5.68;4.15;;;22.30;71.60;;;;;;4959251;28;20034;-80
2022/08/16 07:00:27;;;;;;;4.30;3.90;;;22.40;71.50;;;;;;4949230;28;20511;-81
2022/08/16 07:02:52;;;;;;;6.00;3.80;;;22.60;71.60;;;;;;4945074;28;20026;-81
2022/08/16 07:05:18;;;;;;;6.65;4.10;;;22.70;71.50;;;;;;4960100;28;20181;-80
2022/08/16 07:07:47;;;;;;;5.00;3.58;;;22.80;71.30;;;;;;4951974;28;20078;-80
2022/08/16 07:10:15;;;;;;;6.63;4.00;;;22.80;71.10;;;;;;4953105;28;20236;-79
2022/08/16 07:12:42;;;;;;;5.47;4.10;;;23.00;71.00;;;;;;4971344;28;20015;-81
2022/08/16 07:15:08;;;;;;;6.22;3.90;;;23.10;70.90;;;;;;4950105;28;20060;-81
2022/08/16 07:17:35;;;;;;;5.95;3.97;;;23.20;70.70;;;;;;4969289;28;20034;-80
2022/08/16 07:20:03;;;;;;;5.82;3.90;;;23.40;70.60;;;;;;4974212;28;20019;-79
2022/08/16 07:22:28;;;;;;;4.20;3.67;;;23.50;70.40;;;;;;4955420;28;20229;-80
2022/08/16 07:24:55;;;;;;;5.03;3.78;;;23.60;70.10;;;;;;4979904;28;20034;-80
2022/08/16 07:27:21;;;;;;;4.75;3.70;;;23.70;70.00;;;;;;4980735;28;20100;-80
2022/08/16 07:29:47;;;;;;;5.57;3.17;;;23.90;69.80;;;;;;4979046;28;20117;-80
2022/08/16 07:32:13;;;;;;;5.10;3.83;;;24.00;69.50;;;;;;4946429;28;20268;-80
2022/08/16 07:34:39;;;;;;;4.30;3.20;;;24.10;69.30;;;;;;4977098;28;20018;-79
2022/08/16 07:37:09;;;;;;;5.22;3.47;;;24.30;69.20;;;;;;4965700;28;20421;-79
2022/08/16 07:39:35;;;;;;;6.03;3.55;;;24.40;68.80;;;;;;4965917;28;20043;-79
2022/08/16 07:42:01;;;;;;;3.63;3.23;;;24.50;68.70;;;;;;4970225;28;20022;-80
2022/08/16 07:44:27;;;;;;;4.95;3.25;;;24.70;69.20;;;;;;4950969;28;20533;-80
2022/08/16 07:46:53;;;;;;;4.43;2.93;;;24.80;68.00;;;;;;4954117;28;20373;-80
2022/08/16 07:49:18;;;;;;;4.38;3.05;;;25.00;67.80;;;;;;4965410;28;20648;-81
2022/08/16 07:51:45;;;;;;;3.40;3.00;;;25.20;67.90;;;;;;4963240;28;20157;-80
2022/08/16 07:54:11;;;;;;;3.97;3.10;;;25.30;68.10;;;;;;4931828;28;20513;-81
2022/08/16 07:56:37;;;;;;;4.47;3.08;;;25.60;68.20;;;;;;4962630;28;20018;-80
2022/08/16 07:59:03;;;;;;;3.83;2.88;;;25.80;68.00;;;;;;4955812;28;20057;-81
2022/08/16 08:01:29;;;;;;;3.58;3.28;;;26.10;67.40;;;;;;4944235;28;21071;-80
2022/08/16 08:03:56;;;;;;;4.73;3.10;;;26.40;67.20;;;;;;4960402;28;20113;-79
2022/08/16 08:06:24;;;;;;;4.28;3.15;;;26.60;66.90;;;;;;4936879;28;20031;-80
2022/08/16 08:08:50;;;;;;;3.15;2.80;;;26.90;66.40;;;;;;4956341;28;20142;-79
2022/08/16 08:11:16;;;;;;;3.33;2.95;;;27.20;65.90;;;;;;4958014;28;20109;-80
2022/08/16 08:13:42;;;;;;;2.90;2.60;;;27.50;65.60;;;;;;4978246;28;20041;-81
2022/08/16 08:16:09;;;;;;;3.47;2.80;;;27.70;65.60;;;;;;4975763;28;20091;-79
2022/08/16 08:18:35;;;;;;;2.90;2.50;;;28.00;65.40;;;;;;4956730;28;20046;-80
2022/08/16 08:21:01;;;;;;;3.72;2.85;;;28.30;65.20;;;;;;4963545;28;20034;-81
2022/08/16 08:23:27;;;;;;;4.55;2.85;;;28.70;64.90;;;;;;4958659;28;20293;-80
2022/08/16 08:25:53;;;;;;;3.10;2.80;;;29.00;64.00;;;;;;4955610;28;20038;-81
2022/08/16 08:28:19;;;;;;;4.38;2.80;;;29.20;62.70;;;;;;4961151;28;21274;-80
2022/08/16 08:30:45;;;;;;;3.58;2.63;;;29.40;62.60;;;;;;4986449;28;20037;-81
2022/08/16 08:33:12;;;;;;;5.68;2.75;;;29.80;62.90;;;;;;4941328;28;20430;-80
2022/08/16 08:35:38;;;;;;;4.40;2.90;;;30.10;63.10;;;;;;4955352;28;20551;-80
2022/08/16 08:38:07;;;;;;;3.00;2.60;;;30.50;62.70;;;;;;4976610;28;20681;-80
2022/08/16 08:40:34;;;;;;;4.13;2.87;;;31.00;62.70;;;;;;4953196;28;20077;-80
2022/08/16 08:43:00;;;;;;;4.32;2.63;;;31.50;61.60;;;;;;4966145;28;20677;-80
2022/08/16 08:45:28;;;;;;;4.43;2.67;;;32.00;60.10;;;;;;4987648;28;20331;-80
2022/08/16 08:47:55;;;;;;;3.00;2.50;;;32.40;58.40;;;;;;4946036;28;20496;-81
2022/08/16 08:50:22;;;;;;;4.70;2.75;;;32.70;57.70;;;;;;4956190;28;20022;-80
2022/08/16 08:52:50;;;;;;;2.67;2.47;;;33.00;55.80;;;;;;4955893;28;20037;-81
2022/08/16 08:55:17;;;;;;;3.60;2.40;;;33.30;55.00;;;;;;4969744;28;21152;-80
2022/08/16 08:57:46;;;;;;;3.20;2.85;;;33.50;54.20;;;;;;4969693;28;20123;-80
2022/08/16 09:00:13;;;;;;;4.53;2.40;;;33.70;53.30;;;;;;4992252;28;20143;-80
2022/08/16 09:02:40;;;;;;;2.70;2.50;;;33.90;53.10;;;;;;4976100;28;20030;-80
2022/08/16 09:05:06;;;;;;;2.93;2.50;;;34.20;53.10;;;;;;4953779;28;20206;-80
2022/08/16 09:07:32;;;;;;;3.20;2.90;;;34.40;52.60;;;;;;4951349;28;20050;-81
2022/08/16 09:09:58;;;;;;;3.72;3.00;;;34.70;51.90;;;;;;4963391;28;20264;-81
2022/08/16 09:12:24;;;;;;;3.25;2.40;;;34.90;51.10;;;;;;4959893;28;20279;-80
2022/08/16 09:14:50;;;;;;;3.17;2.60;;;35.10;50.20;;;;;;4965236;28;20109;-80
2022/08/16 09:17:16;;;;;;;3.58;2.30;;;35.30;49.50;;;;;;4965461;28;20027;-81
2022/08/16 09:19:42;;;;;;;3.00;2.50;;;35.50;48.80;;;;;;4953734;28;20037;-80
2022/08/16 09:22:09;;;;;;;4.38;2.67;;;35.50;47.60;;;;;;4972486;28;20212;-81
2022/08/16 09:24:35;;;;;;;5.80;2.67;;;35.60;46.40;;;;;;4965169;28;20022;-80
2022/08/16 09:27:01;;;;;;;3.53;2.40;;;35.60;46.20;;;;;;4927259;28;20157;-79
2022/08/16 09:29:27;;;;;;;3.38;2.60;;;35.60;45.90;;;;;;4983918;28;20028;-81
2022/08/16 09:31:55;;;;;;;4.15;2.42;;;35.70;45.80;;;;;;4955133;28;20420;-80
2022/08/16 09:34:22;;;;;;;2.85;2.65;;;35.60;45.30;;;;;;4954885;28;20038;-81
2022/08/16 09:36:48;;;;;;;3.00;2.67;;;35.70;45.30;;;;;;4978376;28;20022;-81
2022/08/16 09:39:16;;;;;;;3.83;2.60;;;35.80;45.20;;;;;;4941597;28;20368;-81
2022/08/16 09:41:43;;;;;;;3.40;2.60;;;35.90;45.20;;;;;;4958855;28;20034;-81
2022/08/16 09:44:09;;;;;;;3.00;2.60;;;36.00;45.00;;;;;;4962531;28;20018;-81
2022/08/16 09:46:34;;;;;;;2.53;2.33;;;36.20;44.90;;;;;;4974314;28;20046;-80
2022/08/16 09:49:00;;;;;;;4.60;2.90;;;36.40;44.70;;;;;;4955375;28;25659;-81
2022/08/16 09:51:26;;;;;;;2.53;2.30;;;36.60;45.40;;;;;;4968495;28;20400;-81
2022/08/16 09:53:54;;;;;;;3.00;2.40;;;36.80;44.40;;;;;;4973236;28;20061;-80
2022/08/16 09:56:32;;;;;;;3.65;2.90;;;37.00;43.40;;;;;;4982148;28;20110;-81
2022/08/16 09:59:00;;;;;;;2.90;2.70;;;37.20;42.80;;;;;;4930467;28;20018;-80
2022/08/16 10:01:26;;;;;;;3.80;2.70;;;37.30;42.20;;;;;;4980470;28;20026;-80
2022/08/16 10:03:53;;;;;;;3.33;2.30;;;37.40;41.60;;;;;;4957023;28;20137;-80
2022/08/16 10:06:20;;;;;;;3.20;2.65;;;37.40;41.50;;;;;;4961901;28;20038;-81
2022/08/16 10:08:50;;;;;;;2.72;2.17;;;37.60;41.40;;;;;;4962900;28;20037;-80
2022/08/16 10:14:02;;;;;;;3.03;2.73;;;37.90;41.10;;;;;;4962287;28;20026;-81
2022/08/16 10:16:28;;;;;;;2.83;2.50;;;38.10;40.60;;;;;;4978134;28;20240;-81
2022/08/16 10:18:54;;;;;;;3.13;2.88;;;38.30;40.30;;;;;;4979088;28;20037;-80
2022/08/16 10:21:21;;;;;;;2.88;2.53;;;38.50;39.80;;;;;;4951315;28;20027;-80
2022/08/16 10:23:48;;;;;;;3.83;2.50;;;38.60;38.80;;;;;;4951472;28;20023;-80
2022/08/16 10:26:14;;;;;;;5.30;3.00;;;38.50;38.10;;;;;;4969663;28;20146;-80
2022/08/16 10:28:40;;;;;;;2.92;2.50;;;38.30;37.30;;;;;;4942151;28;20027;-80
2022/08/16 10:31:07;;;;;;;2.47;2.28;;;38.00;37.00;;;;;;4963423;28;20023;-80
2022/08/16 10:33:33;;;;;;;3.88;2.65;;;37.70;36.90;;;;;;4957793;28;20208;-81
2022/08/16 10:36:03;;;;;;;2.60;2.40;;;37.40;36.90;;;;;;4974940;28;20057;-80
2022/08/16 10:38:28;;;;;;;3.45;2.30;;;37.00;36.80;;;;;;4945014;28;20077;-80
2022/08/16 10:40:54;;;;;;;2.78;2.17;;;36.70;36.90;;;;;;4943301;28;20054;-80
2022/08/16 10:43:20;;;;;;;2.90;2.20;;;36.40;37.00;;;;;;4964430;28;20208;-80
2022/08/16 10:45:47;;;;;;;3.30;2.30;;;36.20;37.30;;;;;;4960260;28;20061;-80
2022/08/16 10:48:13;;;;;;;3.28;2.40;;;35.90;37.40;;;;;;4973774;28;20582;-80
2022/08/16 10:50:39;;;;;;;2.83;2.50;;;35.60;37.60;;;;;;4961714;28;20049;-80
2022/08/16 10:53:05;;;;;;;3.13;2.30;;;35.40;37.60;;;;;;4925427;28;20025;-80
2022/08/16 10:55:36;;;;;;;3.03;2.40;;;35.20;37.80;;;;;;4977612;28;20030;-80
2022/08/16 10:58:05;;;;;;;5.65;3.40;;;34.90;37.80;;;;;;4970018;28;20057;-80
2022/08/16 11:00:35;;;;;;;3.58;2.42;;;34.70;38.10;;;;;;4936730;28;20034;-81
2022/08/16 11:03:02;;;;;;;2.67;2.33;;;34.50;38.20;;;;;;4964940;28;20101;-80
2022/08/16 11:05:30;;;;;;;2.78;2.50;;;34.30;38.80;;;;;;4974889;28;20022;-80
2022/08/16 11:07:57;;;;;;;2.78;2.20;;;34.20;39.20;;;;;;4938887;28;20406;-80
2022/08/16 11:10:32;;;;;;;2.67;2.47;;;34.10;39.70;;;;;;4982201;28;20038;-80
2022/08/16 11:12:58;;;;;;;3.78;2.60;;;34.30;40.00;;;;;;4963733;28;20109;-80
2022/08/16 11:15:25;;;;;;;3.17;2.87;;;34.40;40.50;;;;;;4957490;28;20031;-81
2022/08/16 11:17:53;;;;;;;2.97;2.60;;;34.60;40.60;;;;;;4976111;28;20093;-80
2022/08/16 11:20:19;;;;;;;4.13;2.85;;;34.90;40.60;;;;;;4960807;28;20030;-79
2022/08/16 11:22:49;;;;;;;4.22;2.53;;;35.10;40.30;;;;;;4955139;28;20027;-79
2022/08/16 11:25:21;;;;;;;2.95;2.65;;;35.20;39.50;;;;;;4948830;28;20117;-79
2022/08/16 11:27:47;;;;;;;3.47;2.60;;;35.40;39.20;;;;;;4965928;28;20377;-80
2022/08/16 11:30:15;;;;;;;3.10;2.70;;;35.40;39.30;;;;;;4953677;28;20195;-80
2022/08/16 11:32:43;;;;;;;3.10;2.65;;;35.40;38.90;;;;;;4952480;28;20062;-80
2022/08/16 11:35:19;;;;;;;3.58;2.80;;;35.40;39.10;;;;;;4948968;28;20022;-80
2022/08/16 11:37:59;;;;;;;2.50;2.30;;;35.40;38.80;;;;;;4974165;28;20019;-80
2022/08/16 11:40:27;;;;;;;2.95;2.60;;;35.50;38.80;;;;;;4949409;28;20027;-80
2022/08/16 11:42:53;;;;;;;3.33;2.80;;;35.60;39.20;;;;;;4970758;28;20034;-80
2022/08/16 11:45:19;;;;;;;4.03;2.95;;;35.80;39.40;;;;;;4965125;28;20045;-80
2022/08/16 11:47:45;;;;;;;3.08;2.72;;;36.00;40.30;;;;;;4955763;28;20039;-81
2022/08/16 11:50:11;;;;;;;3.30;3.00;;;36.20;39.50;;;;;;4965031;28;21037;-79
2022/08/16 11:52:38;;;;;;;3.53;3.05;;;36.40;39.30;;;;;;4946822;28;20097;-80
2022/08/16 11:55:06;;;;;;;3.20;2.90;;;36.60;39.10;;;;;;4958263;28;20406;-80
2022/08/16 11:57:33;;;;;;;3.20;2.90;;;36.90;38.70;;;;;;4974967;28;20634;-81
2022/08/16 11:59:59;;;;;;;3.10;2.80;;;37.00;38.60;;;;;;4941450;28;20045;-80
2022/08/16 12:02:25;;;;;;;3.30;3.00;;;37.20;38.50;;;;;;4961343;28;20045;-80
2022/08/16 12:04:50;;;;;;;3.40;2.95;;;37.40;38.50;;;;;;4961409;28;20391;-81
2022/08/16 12:07:17;;;;;;;3.50;3.20;;;37.70;38.50;;;;;;4965115;28;20301;-80
2022/08/16 12:09:42;;;;;;;3.35;3.05;;;37.90;38.40;;;;;;4939667;28;20086;-80
2022/08/16 12:12:09;;;;;;;3.83;2.87;;;38.10;37.70;;;;;;4966732;28;20031;-81
2022/08/16 12:14:35;;;;;;;4.40;3.53;;;38.30;37.50;;;;;;4956827;28;20128;-81
2022/08/16 12:17:03;;;;;;;3.90;3.55;;;38.60;37.40;;;;;;4958688;28;20037;-80
2022/08/16 12:19:29;;;;;;;4.25;2.95;;;38.80;37.30;;;;;;4935437;28;20034;-80
2022/08/16 12:21:55;;;;;;;4.13;3.70;;;39.10;36.50;;;;;;4978074;28;20121;-79
2022/08/16 12:24:21;;;;;;;3.33;3.03;;;39.20;35.90;;;;;;4982067;28;20308;-80
2022/08/16 12:26:47;;;;;;;3.25;2.95;;;39.20;35.20;;;;;;4934589;28;20031;-81
2022/08/16 12:29:13;;;;;;;3.42;3.08;;;39.30;34.80;;;;;;4962232;28;20431;-81
2022/08/16 12:31:40;;;;;;;4.40;2.80;;;39.30;34.00;;;;;;4979998;28;20019;-81
2022/08/16 12:34:06;;;;;;;3.55;3.25;;;39.30;33.90;;;;;;4963425;28;20106;-79
2022/08/16 12:36:35;;;;;;;4.20;3.28;;;39.30;34.00;;;;;;4979526;28;20512;-80
2022/08/16 12:39:03;;;;;;;4.13;3.15;;;39.30;33.80;;;;;;4985574;28;20034;-80
2022/08/16 12:41:31;;;;;;;2.92;2.63;;;39.30;33.80;;;;;;4948801;28;20217;-82
2022/08/16 12:43:57;;;;;;;3.57;3.00;;;39.20;33.60;;;;;;4969158;28;20562;-81
2022/08/16 12:46:24;;;;;;;2.90;2.70;;;39.20;33.30;;;;;;4957174;28;20589;-80
2022/08/16 12:48:59;;;;;;;3.72;2.65;;;39.10;33.30;;;;;;4962086;28;20019;-80